Terminal Aerodrome Forecast
Issued by NWS

Home | Current Version | Previous Version | Text Only | Print | Product List | Glossary On
Versions: 1 2 3 4 5 6 7 8 9 10 11 12 13 14 15 16 17 18 19 20 21 22 23 24 25 26
869
FTUS41 KBUF 302059 AAA
TAFIAG
TAF AMD
KIAG 302059Z 3021/3118 07010KT P6SM SCT040 BKN120
     FM310000 07008KT P6SM BKN080
     FM310600 07008KT P6SM VCSH OVC060
     FM311200 06010KT 6SM -SHRA SCT015 OVC035=

USA.gov is the U.S. government's official web portal to all federal, state and local government web resources and services.